createdAt,value
2022-10-14T00:01:33.144Z,99940.28
2022-10-14T00:04:02.034Z,99946.22
2022-10-14T00:06:34.424Z,99948.78
2022-10-14T00:09:06.178Z,99946.19
2022-10-14T00:11:35.927Z,99944.53
2022-10-14T00:14:06.888Z,99948.78
2022-10-14T00:16:38.145Z,99937.69
2022-10-14T00:19:07.389Z,99946.19
2022-10-14T00:21:37.010Z,99928.34
2022-10-14T00:24:07.083Z,99946.19
2022-10-14T00:26:38.904Z,99942.81
2022-10-14T00:29:13.182Z,99941.13
2022-10-14T00:31:42.522Z,99941.94
2022-10-14T00:34:13.454Z,99936.00
2022-10-14T00:36:42.297Z,99931.75
2022-10-14T00:39:15.855Z,99942.81
2022-10-14T00:41:45.733Z,99940.25
2022-10-14T00:44:39.435Z,99931.75
2022-10-14T00:47:09.596Z,99928.34
2022-10-14T00:49:43.715Z,99924.09
2022-10-14T00:52:21.125Z,99927.47
2022-10-14T00:54:54.913Z,99925.78
2022-10-14T00:57:24.944Z,99920.69
2022-10-14T00:59:56.774Z,99924.06
2022-10-14T01:02:30.894Z,99918.97
2022-10-14T01:05:00.505Z,99924.91
2022-10-14T01:07:38.313Z,99918.94
2022-10-14T01:10:15.425Z,99927.47
2022-10-14T01:12:56.377Z,99916.41
2022-10-14T01:15:34.463Z,99913.00
2022-10-14T01:18:19.360Z,99912.16
2022-10-14T01:21:08.825Z,99916.41
2022-10-14T01:24:01.468Z,99912.16
2022-10-14T01:26:52.776Z,99905.31
2022-10-14T01:29:43.573Z,99907.03
2022-10-14T01:32:19.147Z,99901.91
2022-10-14T01:34:55.145Z,99901.94
2022-10-14T01:37:27.867Z,99899.38
2022-10-14T01:40:00.926Z,99896.81
2022-10-14T01:42:36.416Z,99896.81
2022-10-14T01:45:10.417Z,99895.97
2022-10-14T01:47:42.906Z,99894.28
2022-10-14T01:50:15.666Z,99896.81
2022-10-14T01:52:51.007Z,99892.56
2022-10-14T01:55:24.357Z,99888.31
2022-10-14T01:57:58.017Z,99898.53
2022-10-14T02:00:27.499Z,99880.63
2022-10-14T02:02:57.625Z,99895.09
2022-10-14T02:05:33.501Z,99887.44
2022-10-14T02:08:12.340Z,99889.16
2022-10-14T02:11:02.098Z,99879.78
2022-10-14T02:13:47.589Z,99880.66
2022-10-14T02:16:25.665Z,99884.91
2022-10-14T02:19:04.003Z,99878.94
2022-10-14T02:21:41.443Z,99874.66
2022-10-14T02:24:31.596Z,99874.69
2022-10-14T02:27:04.686Z,99871.28
2022-10-14T02:29:37.817Z,99876.38
2022-10-14T02:32:09.224Z,99867.84
2022-10-14T02:34:43.736Z,99876.38
2022-10-14T02:37:14.450Z,99872.97
2022-10-14T02:39:47.737Z,99868.72
2022-10-14T02:42:18.119Z,99878.06
2022-10-14T02:44:54.755Z,99868.72
2022-10-14T02:47:24.068Z,99867.88
2022-10-14T02:49:55.498Z,99868.72
2022-10-14T02:52:26.057Z,99874.66
2022-10-14T02:54:55.354Z,99869.53
2022-10-14T02:57:24.654Z,99863.56
2022-10-14T02:59:53.357Z,99870.41
2022-10-14T03:02:22.149Z,99872.94
2022-10-14T03:04:50.979Z,99862.72
2022-10-14T03:07:20.966Z,99871.22
2022-10-14T03:09:53.584Z,99874.63
2022-10-14T03:12:25.888Z,99877.19
2022-10-14T03:14:57.927Z,99876.38
2022-10-14T03:17:28.404Z,99872.13
2022-10-14T03:20:01.876Z,99869.53
2022-10-14T03:22:34.279Z,99879.75
2022-10-14T03:25:03.112Z,99887.41
2022-10-14T03:27:42.785Z,99883.16
2022-10-14T03:30:15.598Z,99870.38
2022-10-14T03:32:58.812Z,99879.75
2022-10-14T03:35:38.474Z,99878.91
2022-10-14T03:38:14.157Z,99886.56
2022-10-14T03:40:44.006Z,99883.13
2022-10-14T03:43:14.945Z,99887.41
2022-10-14T03:45:54.294Z,99886.53
2022-10-14T03:48:26.017Z,99883.13
2022-10-14T03:50:58.500Z,99891.63
2022-10-14T03:53:29.519Z,99887.38
2022-10-14T03:55:58.868Z,99878.00
2022-10-14T03:58:28.008Z,99876.28
2022-10-14T04:01:02.880Z,99872.84
2022-10-14T04:03:43.068Z,99871.19
2022-10-14T04:06:11.867Z,99873.69
2022-10-14T04:08:42.536Z,99866.03
2022-10-14T04:11:26.859Z,99876.25
2022-10-14T04:14:02.799Z,99874.56
2022-10-14T04:16:34.166Z,99875.41
2022-10-14T04:19:08.213Z,99875.41
2022-10-14T04:21:37.187Z,99878.81
2022-10-14T04:24:08.613Z,99874.53
2022-10-14T04:27:03.726Z,99851.59
2022-10-14T04:29:55.337Z,99868.59
2022-10-14T04:32:29.495Z,99857.50
2022-10-14T04:34:58.303Z,99866.00
2022-10-14T04:37:31.716Z,99852.38
2022-10-14T04:40:07.414Z,99860.91
2022-10-14T04:42:43.240Z,99865.16
2022-10-14T04:45:21.947Z,99814.13
2022-10-14T04:47:57.785Z,99860.91
2022-10-14T04:50:28.332Z,99859.19
2022-10-14T04:53:13.290Z,99845.59
2022-10-14T04:55:55.894Z,99866.00
2022-10-14T04:58:25.423Z,99867.69
2022-10-14T05:00:55.337Z,99869.41
2022-10-14T05:03:29.536Z,99875.38
2022-10-14T05:05:58.924Z,99867.72
2022-10-14T05:08:28.027Z,99859.19
2022-10-14T05:11:00.473Z,99859.19
2022-10-14T05:13:44.444Z,99847.28
2022-10-14T05:16:13.213Z,99856.66
2022-10-14T05:18:41.967Z,99847.28
2022-10-14T05:21:13.143Z,99840.47
2022-10-14T05:24:09.070Z,99802.19
2022-10-14T05:26:41.954Z,99842.19
2022-10-14T05:29:13.686Z,99842.16
2022-10-14T05:31:43.276Z,99845.56
2022-10-14T05:34:25.350Z,99846.41
2022-10-14T05:36:53.974Z,99848.13
2022-10-14T05:39:25.074Z,99847.28
2022-10-14T05:41:55.344Z,99852.38
2022-10-14T05:44:27.379Z,99860.91
2022-10-14T05:46:55.986Z,99855.78
2022-10-14T05:49:26.983Z,99853.22
2022-10-14T05:51:58.673Z,99861.75
2022-10-14T05:54:27.757Z,99867.72
2022-10-14T05:56:59.936Z,99868.53
2022-10-14T05:59:30.066Z,99861.72
2022-10-14T06:02:00.909Z,99851.47
2022-10-14T06:04:29.900Z,99855.69
2022-10-14T06:06:59.955Z,99859.94
2022-10-14T06:09:32.828Z,99863.38
2022-10-14T06:12:02.934Z,99865.03
2022-10-14T06:14:31.771Z,99864.19
2022-10-14T06:17:01.407Z,99870.97
2022-10-14T06:19:33.815Z,99852.22
2022-10-14T06:22:02.546Z,99872.63
2022-10-14T06:24:31.264Z,99866.66
2022-10-14T06:26:59.825Z,99856.38
2022-10-14T06:29:33.026Z,99867.44
2022-10-14T06:32:01.769Z,99850.34
2022-10-14T06:34:30.435Z,99859.72
2022-10-14T06:37:02.391Z,99858.03
2022-10-14T06:39:31.394Z,99865.72
2022-10-14T06:41:59.944Z,99868.28
2022-10-14T06:44:30.860Z,99872.47
2022-10-14T06:46:59.475Z,99872.50
2022-10-14T06:49:28.157Z,99825.69
2022-10-14T06:51:56.657Z,99887.78
2022-10-14T06:54:25.339Z,99883.50
2022-10-14T06:56:53.907Z,99880.94
2022-10-14T06:59:23.019Z,99886.03
2022-10-14T07:01:53.299Z,99874.09
2022-10-14T07:04:21.877Z,99876.59
2022-10-14T07:06:52.086Z,99874.03
2022-10-14T07:09:20.877Z,99868.88
2022-10-14T07:11:49.367Z,99867.16
2022-10-14T07:14:18.137Z,99874.78
2022-10-14T07:16:47.920Z,99867.94
2022-10-14T07:19:18.051Z,99868.75
2022-10-14T07:21:46.817Z,99858.56
2022-10-14T07:24:15.358Z,99877.22
2022-10-14T07:26:44.451Z,99866.94
2022-10-14T07:29:12.967Z,99866.06
2022-10-14T07:31:42.212Z,99883.88
2022-10-14T07:34:11.313Z,99879.59
2022-10-14T07:36:41.640Z,99889.78
2022-10-14T07:39:10.415Z,99885.50
2022-10-14T07:41:40.285Z,99880.31
2022-10-14T07:44:10.363Z,99884.56
2022-10-14T07:46:41.312Z,99888.81
2022-10-14T07:49:12.884Z,99894.78
2022-10-14T07:51:44.054Z,99887.91
2022-10-14T07:54:16.472Z,99886.22
2022-10-14T07:56:49.330Z,99891.28
2022-10-14T07:59:19.223Z,99891.28
2022-10-14T08:01:48.683Z,99895.53
2022-10-14T08:04:17.674Z,99884.47
2022-10-14T08:06:48.770Z,99894.66
2022-10-14T08:09:18.472Z,99891.19
2022-10-14T08:11:49.091Z,99897.16
2022-10-14T08:14:18.473Z,99845.31
2022-10-14T08:16:47.163Z,99897.13
2022-10-14T08:19:15.925Z,99898.81
2022-10-14T08:21:44.771Z,99894.50
2022-10-14T08:24:14.714Z,99891.06
2022-10-14T08:26:52.077Z,99887.63
2022-10-14T08:29:22.706Z,99896.97
2022-10-14T08:31:51.753Z,99888.44
2022-10-14T08:34:21.406Z,99888.41
2022-10-14T08:36:50.497Z,99905.47
2022-10-14T08:39:20.874Z,99902.91
2022-10-14T08:42:10.738Z,99897.72
2022-10-14T08:44:47.089Z,99892.47
2022-10-14T08:47:18.041Z,99889.88
2022-10-14T08:50:01.858Z,99889.78
2022-10-14T08:52:37.703Z,99888.78
2022-10-14T08:55:24.781Z,99900.72
2022-10-14T08:57:59.433Z,99897.22
2022-10-14T09:00:31.416Z,99894.63
2022-10-14T09:03:07.663Z,99898.88
2022-10-14T09:05:36.680Z,99906.53
2022-10-14T09:08:06.796Z,99899.69
2022-10-14T09:10:42.290Z,99897.94
2022-10-14T09:13:16.992Z,99906.47
2022-10-14T09:15:48.061Z,99897.91
2022-10-14T09:18:28.379Z,99900.50
2022-10-14T09:20:59.871Z,99894.50
2022-10-14T09:23:29.599Z,99902.16
2022-10-14T09:26:01.037Z,99894.44
2022-10-14T09:28:37.236Z,99885.91
2022-10-14T09:31:19.702Z,99887.56
2022-10-14T09:34:00.499Z,99895.16
2022-10-14T09:36:43.113Z,99891.63
2022-10-14T09:39:25.046Z,99889.88
2022-10-14T09:42:14.760Z,99894.13
2022-10-14T09:45:11.273Z,99896.66
2022-10-14T09:47:57.316Z,99881.34
2022-10-14T09:50:43.799Z,99895.00
2022-10-14T09:53:31.283Z,99895.84
2022-10-14T09:56:11.661Z,99893.25
2022-10-14T09:58:57.312Z,99887.13
2022-10-14T10:01:42.743Z,99884.53
2022-10-14T10:04:35.113Z,99891.28
2022-10-14T10:07:31.320Z,99895.47
2022-10-14T10:10:22.903Z,99882.66
2022-10-14T10:13:03.681Z,99896.38
2022-10-14T10:15:59.656Z,99892.09
2022-10-14T10:18:40.422Z,99886.03
2022-10-14T10:21:26.037Z,99892.88
2022-10-14T10:24:25.983Z,99884.22
2022-10-14T10:27:21.504Z,99873.19
2022-10-14T10:30:22.457Z,99882.50
2022-10-14T10:33:03.231Z,99880.69
2022-10-14T10:35:43.743Z,99874.59
2022-10-14T10:38:24.156Z,99882.19
2022-10-14T10:41:07.284Z,99882.94
2022-10-14T10:43:50.963Z,99874.28
2022-10-14T10:46:51.621Z,99871.63
2022-10-14T10:49:36.413Z,99865.56
2022-10-14T10:52:17.361Z,99866.97
2022-10-14T10:54:57.332Z,99863.44
2022-10-14T10:57:40.341Z,99853.09
2022-10-14T11:00:14.883Z,99842.19
2022-10-14T11:03:11.932Z,99856.59
2022-10-14T11:05:58.693Z,99856.63
2022-10-14T11:08:50.541Z,99837.91
2022-10-14T11:11:37.443Z,99848.81
2022-10-14T11:14:17.432Z,99848.00
2022-10-14T11:16:56.874Z,99849.91
2022-10-14T11:19:33.644Z,99840.47
2022-10-14T11:22:12.072Z,99837.91
2022-10-14T11:24:48.293Z,99833.59
2022-10-14T11:27:24.832Z,99839.59
2022-10-14T11:30:13.890Z,99839.69
2022-10-14T11:32:57.832Z,99837.19
2022-10-14T11:35:40.356Z,99838.13
2022-10-14T11:38:37.142Z,99840.66
2022-10-14T11:41:13.730Z,99834.56
2022-10-14T11:43:51.622Z,99829.47
2022-10-14T11:46:22.783Z,99820.88
2022-10-14T11:48:55.445Z,99826.84
2022-10-14T11:51:35.563Z,99820.81
2022-10-14T11:54:07.222Z,99817.41
2022-10-14T11:56:42.679Z,99802.09
2022-10-14T11:59:22.630Z,99815.50
2022-10-14T12:01:54.996Z,99818.88
2022-10-14T12:04:30.284Z,99818.06
2022-10-14T12:07:05.439Z,99813.53
2022-10-14T12:09:40.506Z,99811.66
2022-10-14T12:12:13.682Z,99814.94
2022-10-14T12:14:46.412Z,99813.09
2022-10-14T12:17:22.534Z,99814.94
2022-10-14T12:19:52.822Z,99810.69
2022-10-14T12:22:27.230Z,99799.66
2022-10-14T12:24:57.793Z,99796.34
2022-10-14T12:27:29.059Z,99805.81
2022-10-14T12:29:59.057Z,99803.34
2022-10-14T12:32:28.490Z,99787.28
2022-10-14T12:34:58.833Z,99787.38
2022-10-14T12:37:50.504Z,99796.78
2022-10-14T12:40:31.904Z,99800.25
2022-10-14T12:43:04.951Z,99797.69
2022-10-14T12:45:36.557Z,99793.38
2022-10-14T12:48:16.901Z,99788.28
2022-10-14T12:50:46.535Z,99797.66
2022-10-14T12:53:25.395Z,99794.25
2022-10-14T12:55:55.609Z,99794.28
2022-10-14T12:58:28.911Z,99787.56
2022-10-14T13:01:01.562Z,99802.13
2022-10-14T13:03:35.919Z,99797.09
2022-10-14T13:06:30.143Z,99803.16
2022-10-14T13:09:18.593Z,99804.09
2022-10-14T13:12:18.533Z,99796.53
2022-10-14T13:14:59.923Z,99799.19
2022-10-14T13:17:46.343Z,99794.94
2022-10-14T13:20:37.050Z,99790.78
2022-10-14T13:23:28.900Z,99787.34
2022-10-14T13:26:09.939Z,99792.63
2022-10-14T13:28:44.380Z,99779.94
2022-10-14T13:31:20.084Z,99779.94
2022-10-14T13:33:55.480Z,99793.66
2022-10-14T13:36:31.272Z,99789.50
2022-10-14T13:39:02.852Z,99796.28
2022-10-14T13:41:34.897Z,99786.88
2022-10-14T13:44:05.511Z,99786.16
2022-10-14T13:46:38.514Z,99783.53
2022-10-14T13:51:53.395Z,99784.50
2022-10-14T13:54:25.106Z,99787.16
2022-10-14T13:57:38.165Z,99782.09
2022-10-14T14:00:33.169Z,99772.84
2022-10-14T14:02:51.827Z,99772.06
2022-10-14T14:08:34.808Z,99774.63
2022-10-14T14:11:14.964Z,99778.06
2022-10-14T14:13:55.877Z,99766.16
2022-10-14T14:16:33.128Z,99767.84
2022-10-14T14:19:10.154Z,99768.72
2022-10-14T14:21:39.875Z,99761.13
2022-10-14T14:24:18.696Z,99755.97
2022-10-14T14:26:56.419Z,99755.97
2022-10-14T14:29:29.668Z,99746.53
2022-10-14T14:32:07.165Z,99747.34
2022-10-14T14:34:39.881Z,99745.63
2022-10-14T14:40:16.330Z,99741.31
2022-10-14T14:42:47.507Z,99751.59
2022-10-14T14:45:19.837Z,99748.97
2022-10-14T14:47:54.700Z,99755.91
2022-10-14T14:50:31.987Z,99755.88
2022-10-14T14:53:04.336Z,99754.16
2022-10-14T14:55:43.987Z,99753.38
2022-10-14T14:58:22.255Z,99749.13
2022-10-14T15:00:51.837Z,99744.84
2022-10-14T15:03:22.071Z,99740.63
2022-10-14T15:05:52.849Z,99746.69
2022-10-14T15:08:25.257Z,99737.34
2022-10-14T15:10:58.516Z,99745.91
2022-10-14T15:13:46.313Z,99741.66
2022-10-14T15:16:15.014Z,99735.69
2022-10-14T15:18:44.994Z,99739.09
2022-10-14T15:21:20.458Z,99742.53
2022-10-14T15:24:03.532Z,99737.41
2022-10-14T15:26:36.825Z,99740.09
2022-10-14T15:29:15.159Z,99747.78
2022-10-14T15:31:46.502Z,99740.94
2022-10-14T15:34:24.142Z,99737.53
2022-10-14T15:36:54.331Z,99740.13
2022-10-14T15:39:23.414Z,99735.00
2022-10-14T15:41:52.503Z,99730.00
2022-10-14T15:44:21.327Z,99742.75
2022-10-14T15:47:01.384Z,99743.66
2022-10-14T15:49:34.273Z,99741.09
2022-10-14T15:52:02.966Z,99737.63
2022-10-14T15:54:31.658Z,99741.13
2022-10-14T15:57:01.435Z,99747.94
2022-10-14T15:59:30.178Z,99749.66
2022-10-14T16:01:59.163Z,99734.34
2022-10-14T16:04:28.157Z,99737.72
2022-10-14T16:06:58.533Z,99744.63
2022-10-14T16:09:29.076Z,99732.66
2022-10-14T16:12:00.602Z,99744.66
2022-10-14T16:14:29.343Z,99742.97
2022-10-14T16:16:59.183Z,99744.69
2022-10-14T16:19:27.874Z,99734.56
2022-10-14T16:21:58.059Z,99745.53
2022-10-14T16:24:27.363Z,99743.81
2022-10-14T16:26:56.093Z,99750.69
2022-10-14T16:29:24.834Z,99740.50
2022-10-14T16:31:54.561Z,99749.84
2022-10-14T16:34:24.724Z,99745.59
2022-10-14T16:36:53.375Z,99749.91
2022-10-14T16:39:23.452Z,99751.59
2022-10-14T16:41:52.543Z,99746.47
2022-10-14T16:44:27.689Z,99733.72
2022-10-14T16:47:07.272Z,99747.34
2022-10-14T16:49:35.931Z,99747.34
2022-10-14T16:52:05.906Z,99754.19
2022-10-14T16:54:36.116Z,99749.06
2022-10-14T16:57:05.704Z,99749.94
2022-10-14T16:59:34.303Z,99748.25
2022-10-14T17:02:03.093Z,99741.47
2022-10-14T17:04:31.813Z,99734.69
2022-10-14T17:07:07.385Z,99720.28
2022-10-14T17:09:39.776Z,99731.34
2022-10-14T17:12:13.861Z,99741.63
2022-10-14T17:14:43.293Z,99733.06
2022-10-14T17:17:12.676Z,99738.19
2022-10-14T17:19:43.049Z,99746.75
2022-10-14T17:22:11.767Z,99746.75
2022-10-14T17:24:42.162Z,99746.78
2022-10-14T17:27:11.133Z,99740.78
2022-10-14T17:29:39.852Z,99741.69
2022-10-14T17:32:08.733Z,99746.84
2022-10-14T17:34:37.485Z,99750.25
2022-10-14T17:39:38.643Z,99753.75
2022-10-14T17:42:08.982Z,99746.06
2022-10-14T17:44:43.403Z,99750.31
2022-10-14T17:47:12.796Z,99751.19
2022-10-14T17:49:41.365Z,99750.38
2022-10-14T17:52:09.874Z,99751.25
2022-10-14T17:54:38.569Z,99758.94
2022-10-14T17:57:08.974Z,99761.47
2022-10-14T17:59:37.606Z,99765.72
2022-10-14T18:02:06.296Z,99764.84
2022-10-14T18:04:35.149Z,99758.91
2022-10-14T18:07:03.792Z,99753.78
2022-10-14T18:09:32.347Z,99746.97
2022-10-14T18:12:08.689Z,99754.66
2022-10-14T18:14:41.039Z,99753.78
2022-10-14T18:17:12.528Z,99753.78
2022-10-14T18:19:42.171Z,99748.66
2022-10-14T18:22:11.719Z,99740.13
2022-10-14T18:24:40.401Z,99742.69
2022-10-14T18:27:08.959Z,99746.09
2022-10-14T18:29:39.113Z,99749.53
2022-10-14T18:32:07.755Z,99734.25
2022-10-14T18:34:36.727Z,99752.94
2022-10-14T18:37:05.339Z,99748.69
2022-10-14T18:39:34.013Z,99746.13
2022-10-14T18:42:02.672Z,99733.44
2022-10-14T18:44:31.335Z,99745.34
2022-10-14T18:47:01.332Z,99752.19
2022-10-14T18:49:30.114Z,99743.63
2022-10-14T18:51:58.713Z,99749.59
2022-10-14T18:54:28.626Z,99742.75
2022-10-14T18:56:58.715Z,99748.69
2022-10-14T18:59:29.557Z,99743.56
2022-10-14T19:01:58.299Z,99741.03
2022-10-14T19:04:28.642Z,99743.59
2022-10-14T19:06:57.733Z,99750.44
2022-10-14T19:09:30.035Z,99739.44
2022-10-14T19:12:00.145Z,99750.53
2022-10-14T19:14:32.165Z,99750.53
2022-10-14T19:17:00.889Z,99750.47
2022-10-14T19:19:30.977Z,99749.63
2022-10-14T19:22:01.306Z,99740.28
2022-10-14T19:24:31.465Z,99758.19
2022-10-14T19:27:00.127Z,99754.78
2022-10-14T19:29:29.356Z,99757.38
2022-10-14T19:31:59.605Z,99750.56
2022-10-14T19:34:28.335Z,99753.94
2022-10-14T19:37:00.420Z,99753.09
2022-10-14T19:39:29.093Z,99752.25
2022-10-14T19:41:57.986Z,99751.41
2022-10-14T19:44:26.796Z,99750.53
2022-10-14T19:46:55.626Z,99749.69
2022-10-14T19:49:24.326Z,99745.41
2022-10-14T19:51:52.976Z,99750.56
2022-10-14T19:54:22.981Z,99746.34
2022-10-14T19:56:51.654Z,99745.50
2022-10-14T19:59:20.562Z,99746.38
2022-10-14T20:01:49.459Z,99748.94
2022-10-14T20:04:20.843Z,99752.41
2022-10-14T20:06:51.553Z,99753.25
2022-10-14T20:09:20.333Z,99750.69
2022-10-14T20:11:50.454Z,99751.50
2022-10-14T20:14:19.281Z,99747.22
2022-10-14T20:16:51.001Z,99750.69
2022-10-14T20:19:22.644Z,99745.66
2022-10-14T20:21:51.205Z,99756.66
2022-10-14T20:24:19.803Z,99748.16
2022-10-14T20:26:49.822Z,99760.94
2022-10-14T20:29:18.475Z,99757.53
2022-10-14T20:31:47.103Z,99754.97
2022-10-14T20:34:15.911Z,99754.09
2022-10-14T20:36:44.597Z,99757.56
2022-10-14T20:39:13.351Z,99759.28
2022-10-14T20:41:42.044Z,99758.44
2022-10-14T20:44:12.173Z,99752.47
2022-10-14T20:46:41.013Z,99744.84
2022-10-14T20:49:10.199Z,99745.66
2022-10-14T20:51:39.233Z,99718.44
2022-10-14T20:54:10.995Z,99743.94
2022-10-14T20:56:40.745Z,99740.59
2022-10-14T20:59:13.633Z,99744.00
2022-10-14T21:01:42.468Z,99742.31
2022-10-14T21:04:11.205Z,99740.59
2022-10-14T21:06:40.066Z,99734.66
2022-10-14T21:09:08.834Z,99734.63
2022-10-14T21:11:37.504Z,99731.22
2022-10-14T21:14:06.094Z,99731.22
2022-10-14T21:16:40.183Z,99733.81
2022-10-14T21:19:11.235Z,99733.03
2022-10-14T21:21:42.944Z,99728.81
2022-10-14T21:24:15.034Z,99728.81
2022-10-14T21:26:43.815Z,99732.19
2022-10-14T21:29:12.501Z,99729.63
2022-10-14T21:31:42.591Z,99716.81
2022-10-14T21:34:12.538Z,99733.09
2022-10-14T21:36:41.694Z,99720.28
2022-10-14T21:39:13.034Z,99725.41
2022-10-14T21:41:42.553Z,99726.28
2022-10-14T21:44:15.804Z,99724.53
2022-10-14T21:46:45.896Z,99718.63
2022-10-14T21:49:14.949Z,99714.34
2022-10-14T21:51:43.713Z,99705.03
2022-10-14T21:54:12.955Z,99720.41
2022-10-14T21:56:41.696Z,99719.53
2022-10-14T21:59:14.446Z,99722.13
2022-10-14T22:01:43.556Z,99714.41
2022-10-14T22:04:13.615Z,99718.66
2022-10-14T22:06:42.360Z,99701.63
2022-10-14T22:09:10.993Z,99655.75
2022-10-14T22:11:42.854Z,99699.81
2022-10-14T22:14:15.062Z,99698.09
2022-10-14T22:16:43.955Z,99692.94
2022-10-14T22:19:14.753Z,99701.50
2022-10-14T22:21:45.214Z,99699.75
2022-10-14T22:24:14.583Z,99692.91
2022-10-14T22:26:43.267Z,99683.56
2022-10-14T22:29:15.243Z,99692.91
2022-10-14T22:31:43.906Z,99696.38
2022-10-14T22:34:16.161Z,99681.03
2022-10-14T22:36:45.747Z,99670.00
2022-10-14T22:39:15.435Z,99685.25
2022-10-14T22:41:44.069Z,99682.72
2022-10-14T22:44:12.904Z,99676.75
2022-10-14T22:46:42.099Z,99681.09
2022-10-14T22:49:10.985Z,99682.03
2022-10-14T22:51:41.566Z,99669.38
2022-10-14T22:54:10.874Z,99690.66
2022-10-14T22:56:39.945Z,99688.91
2022-10-14T22:59:11.308Z,99684.69
2022-10-14T23:01:41.103Z,99684.72
2022-10-14T23:04:09.723Z,99671.03
2022-10-14T23:06:38.403Z,99685.56
2022-10-14T23:09:08.535Z,99677.00
2022-10-14T23:11:37.262Z,99685.59
2022-10-14T23:14:07.194Z,99684.78
2022-10-14T23:16:36.885Z,99683.13
2022-10-14T23:19:05.603Z,99667.81
2022-10-14T23:21:36.545Z,99659.34
2022-10-14T23:24:08.821Z,99662.78
2022-10-14T23:26:37.730Z,99663.63
2022-10-14T23:29:09.397Z,99616.94
2022-10-14T23:31:39.869Z,99660.25
2022-10-14T23:34:12.173Z,99658.53
2022-10-14T23:36:41.630Z,99659.34
2022-10-14T23:39:12.833Z,99662.72
2022-10-14T23:41:41.493Z,99662.75
2022-10-14T23:44:13.365Z,99655.06
2022-10-14T23:46:42.105Z,99657.59
2022-10-14T23:49:26.572Z,99661.00
2022-10-14T23:51:56.943Z,99657.59
2022-10-14T23:54:27.214Z,99644.00
2022-10-14T23:56:55.952Z,99667.78
2022-10-14T23:59:24.687Z,99666.09
